Time;durP1;ratioP1;P1;durP2;ratioP2;P2;SDS_P1;SDS_P2;PMS_P1;PMS_P2;Temp;Humidity;BMP_temperature;BMP_pressure;BME280_temperature;BME280_humidity;BME280_pressure;Samples;Min_cycle;Max_cycle;Signal;HPM_P1;HPM_P2
2022/02/02 00:00:34;;;;;;;;;;;24.20;45.40;;;;;;1564930;75;1199;-66
2022/02/02 00:02:45;;;;;;;;;;;24.30;45.50;;;;;;1564105;75;807;-66
2022/02/02 00:04:46;;;;;;;;;;;24.30;45.50;;;;;;1565816;75;1629;-67
2022/02/02 00:06:56;;;;;;;;;;;24.20;45.30;;;;;;1570149;75;1160;-70
2022/02/02 00:08:56;;;;;;;;;;;24.20;45.40;;;;;;1562877;75;1086;-65
2022/02/02 00:13:15;;;;;;;;;;;24.20;45.50;;;;;;1564582;75;1631;-68
2022/02/02 00:17:48;;;;;;;;;;;24.30;45.60;;;;;;1565483;75;1630;-66
2022/02/02 00:19:47;;;;;;;;;;;24.20;45.50;;;;;;1567562;75;1173;-69
2022/02/02 00:21:48;;;;;;;;;;;24.20;45.50;;;;;;1565532;75;1148;-71
2022/02/02 00:23:51;;;;;;;;;;;24.20;45.50;;;;;;1564290;75;1544;-67
2022/02/02 00:26:00;;;;;;;;;;;24.20;45.50;;;;;;1565697;75;1138;-68
2022/02/02 00:27:57;;;;;;;;;;;24.20;45.70;;;;;;1562813;75;1097;-65
2022/02/02 00:30:01;;;;;;;;;;;24.30;45.70;;;;;;1565035;75;1921;-65
2022/02/02 00:32:13;;;;;;;;;;;24.30;45.70;;;;;;1566289;75;1129;-65
2022/02/02 00:34:12;;;;;;;;;;;24.30;45.70;;;;;;1561648;75;1139;-65
2022/02/02 00:36:16;;;;;;;;;;;24.20;45.50;;;;;;1564364;75;1126;-68
2022/02/02 00:38:14;;;;;;;;;;;24.20;45.50;;;;;;1570997;75;1561;-66
2022/02/02 00:40:16;;;;;;;;;;;24.20;45.50;;;;;;1565882;75;1138;-67
2022/02/02 00:42:18;;;;;;;;;;;24.20;45.50;;;;;;1566353;75;837;-66
2022/02/02 00:44:20;;;;;;;;;;;24.20;45.50;;;;;;1558069;75;697;-65
2022/02/02 00:46:25;;;;;;;;;;;24.30;45.60;;;;;;1567321;75;754;-66
2022/02/02 00:48:28;;;;;;;;;;;24.30;45.60;;;;;;1571785;75;1615;-64
2022/02/02 00:50:29;;;;;;;;;;;24.20;45.50;;;;;;1562795;75;1933;-65
2022/02/02 00:52:31;;;;;;;;;;;24.20;45.50;;;;;;1569551;75;801;-64
2022/02/02 00:54:33;;;;;;;;;;;24.30;45.70;;;;;;1567627;75;769;-64
2022/02/02 00:56:35;;;;;;;;;;;24.20;45.50;;;;;;1566381;75;715;-64
2022/02/02 00:58:37;;;;;;;;;;;24.30;45.70;;;;;;1568121;75;770;-66
2022/02/02 01:00:39;;;;;;;;;;;24.20;45.50;;;;;;1566763;75;1192;-67
2022/02/02 01:02:41;;;;;;;;;;;24.20;45.60;;;;;;1568732;75;771;-65
2022/02/02 01:04:43;;;;;;;;;;;24.20;45.60;;;;;;1563204;75;776;-66
2022/02/02 01:06:55;;;;;;;;;;;24.20;45.60;;;;;;1571221;75;720;-67
2022/02/02 01:09:08;;;;;;;;;;;24.20;45.50;;;;;;1560757;75;1579;-66
2022/02/02 01:10:59;;;;;;;;;;;24.20;45.60;;;;;;1552037;75;1932;-68
2022/02/02 01:19:35;;;;;;;;;;;24.20;45.70;;;;;;1568380;75;812;-68
2022/02/02 01:28:26;;;;;;;;;;;24.20;45.70;;;;;;1538885;75;1690;-67
2022/02/02 01:30:28;;;;;;;;;;;24.20;45.70;;;;;;1571519;75;1902;-66
2022/02/02 01:32:30;;;;;;;;;;;24.20;45.70;;;;;;1565287;75;776;-66
2022/02/02 01:34:32;;;;;;;;;;;24.20;45.70;;;;;;1564177;75;863;-66
2022/02/02 01:36:39;;;;;;;;;;;24.20;45.70;;;;;;1555540;76;741;-67
2022/02/02 01:38:38;;;;;;;;;;;24.20;45.80;;;;;;1580876;74;1549;-66
2022/02/02 01:40:45;;;;;;;;;;;24.20;45.80;;;;;;1582261;75;1133;-66
2022/02/02 01:42:50;;;;;;;;;;;24.20;45.80;;;;;;1564411;75;1421;-68
2022/02/02 01:44:55;;;;;;;;;;;24.20;45.80;;;;;;1555244;76;1120;-64
2022/02/02 01:46:52;;;;;;;;;;;24.20;45.80;;;;;;1561998;75;996;-65
2022/02/02 01:49:03;;;;;;;;;;;24.20;45.80;;;;;;1569526;75;699;-67
2022/02/02 01:53:15;;;;;;;;;;;24.20;45.90;;;;;;1582174;75;873;-68
2022/02/02 01:55:09;;;;;;;;;;;24.20;45.90;;;;;;1579175;75;1176;-68
2022/02/02 01:57:43;;;;;;;;;;;24.20;45.90;;;;;;1555314;75;1136;-66
2022/02/02 01:59:42;;;;;;;;;;;24.20;45.90;;;;;;1574350;75;1097;-65
2022/02/02 02:01:25;;;;;;;;;;;24.20;45.90;;;;;;1568989;75;1125;-67
2022/02/02 02:03:27;;;;;;;;;;;24.20;45.90;;;;;;1578262;75;718;-67
2022/02/02 02:05:29;;;;;;;;;;;24.20;45.90;;;;;;1567845;76;765;-67
2022/02/02 02:07:31;;;;;;;;;;;24.20;45.90;;;;;;1573485;75;584;-68
2022/02/02 02:09:33;;;;;;;;;;;24.20;45.90;;;;;;1579156;75;682;-66
2022/02/02 02:11:40;;;;;;;;;;;24.20;45.90;;;;;;1579041;75;1909;-67
2022/02/02 02:15:58;;;;;;;;;;;24.20;45.90;;;;;;1577662;75;1619;-66
2022/02/02 02:18:01;;;;;;;;;;;24.20;45.90;;;;;;1579188;75;683;-66
2022/02/02 02:20:03;;;;;;;;;;;24.20;45.90;;;;;;1594008;74;741;-66
2022/02/02 02:22:08;;;;;;;;;;;24.20;45.90;;;;;;1554158;75;1107;-66
2022/02/02 02:24:09;;;;;;;;;;;24.20;45.90;;;;;;1604330;71;1766;-67
2022/02/02 02:26:19;;;;;;;;;;;24.20;45.90;;;;;;1617260;73;728;-68
2022/02/02 02:28:32;;;;;;;;;;;24.20;46.00;;;;;;1615868;73;1083;-67
2022/02/02 02:32:45;;;;;;;;;;;24.20;45.90;;;;;;1632792;73;856;-66
2022/02/02 02:35:09;;;;;;;;;;;24.20;45.90;;;;;;1628842;73;1552;-67
2022/02/02 02:57:41;;;;;;;;;;;24.20;46.00;;;;;;1618999;73;1629;-63
2022/02/02 02:59:42;;;;;;;;;;;24.20;46.00;;;;;;1622590;73;1143;-64
2022/02/02 03:29:55;;;;;;;;;;;24.10;46.00;;;;;;1625042;73;1624;-65
2022/02/02 03:32:35;;;;;;;;;;;24.00;45.90;;;;;;1616722;73;1919;-68
2022/02/02 03:51:03;;;;;;;;;;;24.20;46.00;;;;;;1579142;74;1951;-76
2022/02/02 03:55:18;;;;;;;;;;;24.20;46.00;;;;;;1557514;76;1042;-73
2022/02/02 04:01:45;;;;;;;;;;;24.10;46.00;;;;;;1544614;76;852;-74
2022/02/02 04:03:42;;;;;;;;;;;24.20;46.00;;;;;;1542009;77;1442;-73
2022/02/02 04:05:39;;;;;;;;;;;24.10;45.90;;;;;;1543700;76;1678;-76
2022/02/02 04:07:53;;;;;;;;;;;24.20;45.90;;;;;;1544860;76;1027;-73
2022/02/02 04:09:53;;;;;;;;;;;24.20;45.90;;;;;;1544734;76;1656;-73
2022/02/02 04:55:40;;;;;;;;;;;24.30;46.20;;;;;;1557573;76;1633;-75
2022/02/02 04:58:00;;;;;;;;;;;24.40;46.20;;;;;;1552609;76;1602;-74
2022/02/02 05:06:24;;;;;;;;;;;24.30;46.20;;;;;;1571006;75;846;-74
2022/02/02 05:17:22;;;;;;;;;;;24.40;46.30;;;;;;1570995;75;862;-74
2022/02/02 05:44:10;;;;;;;;;;;24.50;46.30;;;;;;1484475;80;1663;-73
2022/02/02 05:52:38;;;;;;;;;;;24.60;46.40;;;;;;1567846;74;1902;-72
2022/02/02 05:54:40;;;;;;;;;;;24.50;46.30;;;;;;1570005;76;828;-72
2022/02/02 05:56:44;;;;;;;;;;;24.50;46.20;;;;;;1562483;76;753;-73
2022/02/02 05:58:46;;;;;;;;;;;24.50;46.20;;;;;;1550118;76;1096;-75
2022/02/02 06:00:48;;;;;;;;;;;24.50;46.20;;;;;;1568303;74;741;-72
2022/02/02 06:02:49;;;;;;;;;;;24.50;46.20;;;;;;1557818;76;1130;-74
2022/02/02 06:04:51;;;;;;;;;;;24.40;46.20;;;;;;1571161;76;725;-74
2022/02/02 06:06:54;;;;;;;;;;;24.40;46.20;;;;;;1571047;76;700;-72
2022/02/02 06:08:56;;;;;;;;;;;24.40;46.20;;;;;;1570989;76;722;-74
2022/02/02 06:11:03;;;;;;;;;;;24.40;46.20;;;;;;1571184;76;1942;-73
2022/02/02 06:13:02;;;;;;;;;;;24.40;46.20;;;;;;1570621;75;1616;-76
2022/02/02 06:15:12;;;;;;;;;;;24.50;46.30;;;;;;1571002;76;657;-72
2022/02/02 06:17:09;;;;;;;;;;;24.40;46.10;;;;;;1569784;74;1540;-74
2022/02/02 06:19:11;;;;;;;;;;;24.40;46.10;;;;;;1578785;74;698;-73
2022/02/02 06:21:14;;;;;;;;;;;24.50;46.20;;;;;;1588110;74;717;-73
2022/02/02 06:23:18;;;;;;;;;;;24.30;46.10;;;;;;1591393;74;1163;-68
2022/02/02 06:25:21;;;;;;;;;;;24.40;46.20;;;;;;1581785;74;762;-70
2022/02/02 06:27:25;;;;;;;;;;;24.40;46.20;;;;;;1576324;74;761;-71
2022/02/02 06:29:27;;;;;;;;;;;24.40;46.20;;;;;;1587748;74;956;-75
2022/02/02 06:31:29;;;;;;;;;;;24.40;46.20;;;;;;1588303;74;1929;-76
2022/02/02 06:33:34;;;;;;;;;;;24.40;46.10;;;;;;1577161;74;1127;-74
2022/02/02 06:35:36;;;;;;;;;;;24.40;46.00;;;;;;1557695;76;813;-71
2022/02/02 06:37:39;;;;;;;;;;;24.40;46.10;;;;;;1545025;76;739;-71
2022/02/02 06:39:41;;;;;;;;;;;24.40;46.10;;;;;;1544716;76;703;-71
2022/02/02 06:41:43;;;;;;;;;;;24.40;46.10;;;;;;1544538;76;757;-71
2022/02/02 06:43:46;;;;;;;;;;;24.50;46.10;;;;;;1571008;76;1141;-72
2022/02/02 06:45:48;;;;;;;;;;;24.50;46.10;;;;;;1571050;76;718;-71
2022/02/02 06:47:50;;;;;;;;;;;24.50;46.10;;;;;;1553786;76;711;-72
2022/02/02 06:50:01;;;;;;;;;;;24.50;46.00;;;;;;1556187;76;735;-72
2022/02/02 06:52:01;;;;;;;;;;;24.50;46.00;;;;;;1543508;76;1912;-72
2022/02/02 06:54:02;;;;;;;;;;;24.50;46.00;;;;;;1544235;76;1103;-70
2022/02/02 06:58:41;;;;;;;;;;;24.50;45.90;;;;;;1547710;76;859;-70
2022/02/02 07:00:55;;;;;;;;;;;24.50;45.80;;;;;;1570459;75;1623;-70
2022/02/02 07:02:58;;;;;;;;;;;24.50;45.80;;;;;;1567980;75;1612;-70
2022/02/02 07:07:25;;;;;;;;;;;24.50;45.80;;;;;;1571196;75;859;-73
2022/02/02 07:09:48;;;;;;;;;;;24.50;45.70;;;;;;1569426;75;1694;-71
2022/02/02 07:11:41;;;;;;;;;;;24.50;45.70;;;;;;1568521;75;1928;-72
2022/02/02 07:18:08;;;;;;;;;;;24.50;45.60;;;;;;1575578;74;863;-70
2022/02/02 07:22:22;;;;;;;;;;;24.50;45.70;;;;;;1570891;75;1101;-70
2022/02/02 07:32:51;;;;;;;;;;;24.30;45.50;;;;;;1574438;74;1913;-71
2022/02/02 07:35:05;;;;;;;;;;;24.40;45.30;;;;;;1566726;74;1471;-70
2022/02/02 07:37:03;;;;;;;;;;;24.30;45.10;;;;;;1569494;74;1592;-73
2022/02/02 07:39:07;;;;;;;;;;;24.30;44.80;;;;;;1570841;74;697;-69
2022/02/02 07:41:09;;;;;;;;;;;24.30;44.90;;;;;;1567367;74;728;-74
2022/02/02 07:43:12;;;;;;;;;;;24.30;44.80;;;;;;1574571;74;1162;-73
2022/02/02 07:45:14;;;;;;;;;;;24.30;44.70;;;;;;1575692;74;1056;-74
2022/02/02 07:47:16;;;;;;;;;;;24.20;44.30;;;;;;1591191;74;766;-74
2022/02/02 07:49:19;;;;;;;;;;;24.20;43.90;;;;;;1579790;74;725;-74
2022/02/02 07:51:21;;;;;;;;;;;24.20;43.60;;;;;;1552331;76;732;-74
2022/02/02 07:53:26;;;;;;;;;;;24.10;43.60;;;;;;1532685;77;1956;-75
2022/02/02 07:55:28;;;;;;;;;;;24.10;43.50;;;;;;1526759;77;1413;-75
2022/02/02 07:57:30;;;;;;;;;;;24.00;43.30;;;;;;1540717;76;1050;-73
2022/02/02 07:59:44;;;;;;;;;;;24.00;43.40;;;;;;1530215;76;796;-72
2022/02/02 08:01:38;;;;;;;;;;;24.00;43.20;;;;;;1525091;77;1219;-74
2022/02/02 08:03:44;;;;;;;;;;;24.00;43.00;;;;;;1529516;77;1154;-73
2022/02/02 08:05:47;;;;;;;;;;;24.00;43.10;;;;;;1528838;77;1674;-74
2022/02/02 08:07:58;;;;;;;;;;;24.00;42.80;;;;;;1532957;77;1102;-75
2022/02/02 08:10:05;;;;;;;;;;;23.90;42.80;;;;;;1522819;77;1124;-72
2022/02/02 08:11:55;;;;;;;;;;;23.90;42.80;;;;;;1537688;76;1919;-75
2022/02/02 08:14:00;;;;;;;;;;;23.90;42.80;;;;;;1529411;77;786;-75
2022/02/02 08:16:05;;;;;;;;;;;23.90;42.80;;;;;;1533479;76;1119;-73
2022/02/02 08:18:04;;;;;;;;;;;23.90;42.80;;;;;;1527119;76;1777;-75
2022/02/02 08:20:06;;;;;;;;;;;23.80;42.60;;;;;;1533508;77;682;-73
2022/02/02 08:22:08;;;;;;;;;;;23.80;42.60;;;;;;1530734;77;1135;-74
2022/02/02 08:24:11;;;;;;;;;;;23.80;42.40;;;;;;1531964;77;705;-76
2022/02/02 08:26:15;;;;;;;;;;;23.80;42.50;;;;;;1529332;77;746;-76
2022/02/02 08:28:17;;;;;;;;;;;23.80;42.50;;;;;;1529794;76;730;-75
2022/02/02 08:30:21;;;;;;;;;;;23.70;42.30;;;;;;1531885;77;739;-75
2022/02/02 08:32:27;;;;;;;;;;;23.70;42.40;;;;;;1531156;76;1920;-75
2022/02/02 08:34:26;;;;;;;;;;;23.70;42.40;;;;;;1532561;77;1526;-75
2022/02/02 08:36:29;;;;;;;;;;;23.70;42.20;;;;;;1535664;77;791;-74
2022/02/02 08:38:41;;;;;;;;;;;23.70;42.20;;;;;;1532606;77;725;-76
2022/02/02 08:40:41;;;;;;;;;;;23.70;42.10;;;;;;1529545;77;1662;-72
2022/02/02 08:42:38;;;;;;;;;;;23.70;41.80;;;;;;1532603;77;1673;-75
2022/02/02 08:44:50;;;;;;;;;;;23.70;42.20;;;;;;1526431;77;748;-74
2022/02/02 08:46:53;;;;;;;;;;;23.80;42.30;;;;;;1528223;77;1490;-76
2022/02/02 08:48:51;;;;;;;;;;;23.80;42.30;;;;;;1532166;77;1547;-76
2022/02/02 08:50:55;;;;;;;;;;;23.80;42.30;;;;;;1535705;76;1140;-75
2022/02/02 08:52:58;;;;;;;;;;;23.80;42.30;;;;;;1536333;76;1931;-76
2022/02/02 08:55:04;;;;;;;;;;;23.90;42.40;;;;;;1532786;76;1155;-75
2022/02/02 08:57:22;;;;;;;;;;;24.00;42.40;;;;;;1537458;77;1062;-74
2022/02/02 09:01:27;;;;;;;;;;;24.00;42.40;;;;;;1517718;78;885;-76
2022/02/02 09:05:46;;;;;;;;;;;24.00;42.50;;;;;;1518274;78;1663;-76
2022/02/02 09:07:48;;;;;;;;;;;24.10;42.70;;;;;;1514455;77;748;-75
2022/02/02 09:22:44;;;;;;;;;;;24.10;42.80;;;;;;1526213;78;1655;-76
2022/02/02 09:23:44;;;;;;;;;;;24.10;42.80;;;;;;1511179;78;1527;-76
2022/02/02 09:32:50;;;;;;;;;;;24.20;42.90;;;;;;1534583;73;2773;-72
2022/02/02 09:34:35;;;;;;;;;;;24.10;42.90;;;;;;1455945;80;1192;-73
2022/02/02 09:36:41;;;;;;;;;;;24.20;42.90;;;;;;1492901;79;608;-72
2022/02/02 09:38:41;;;;;;;;;;;24.20;43.00;;;;;;1458393;80;941;-73
2022/02/02 09:42:57;;;;;;;;;;;24.30;43.10;;;;;;1496619;79;1206;-72
2022/02/02 09:44:57;;;;;;;;;;;24.20;42.90;;;;;;1465429;79;1081;-71
2022/02/02 09:47:05;;;;;;;;;;;24.30;43.10;;;;;;1483437;79;699;-74
2022/02/02 09:49:06;;;;;;;;;;;24.30;43.10;;;;;;1477459;79;1120;-74
2022/02/02 09:51:11;;;;;;;;;;;24.30;43.10;;;;;;1475296;80;1115;-74
2022/02/02 09:53:18;;;;;;;;;;;24.20;43.00;;;;;;1471738;79;1935;-74
2022/02/02 09:55:32;;;;;;;;;;;24.30;43.10;;;;;;1480134;79;1002;-75
2022/02/02 09:57:54;;;;;;;;;;;24.30;43.10;;;;;;1480693;79;1086;-73
2022/02/02 10:02:14;;;;;;;;;;;24.30;43.10;;;;;;1468708;78;907;-72
2022/02/02 10:04:05;;;;;;;;;;;24.30;43.10;;;;;;1448324;80;1112;-72
2022/02/02 10:06:32;;;;;;;;;;;24.30;43.20;;;;;;1448081;80;1185;-72
2022/02/02 10:08:58;;;;;;;;;;;24.40;43.10;;;;;;1443121;80;1672;-73
2022/02/02 10:14:50;;;;;;;;;;;24.30;43.20;;;;;;1479858;79;874;-73
2022/02/02 10:16:44;;;;;;;;;;;24.40;43.20;;;;;;1486374;79;1619;-72
2022/02/02 10:18:46;;;;;;;;;;;24.40;43.20;;;;;;1477143;79;728;-73
2022/02/02 10:20:51;;;;;;;;;;;24.30;43.20;;;;;;1479841;78;683;-70
2022/02/02 10:22:56;;;;;;;;;;;24.30;43.30;;;;;;1479722;79;1157;-70
2022/02/02 10:25:04;;;;;;;;;;;24.30;43.30;;;;;;1473853;79;724;-73
2022/02/02 10:27:01;;;;;;;;;;;24.40;43.20;;;;;;1474785;79;1038;-73
2022/02/02 10:29:07;;;;;;;;;;;24.50;43.30;;;;;;1478363;78;807;-73
2022/02/02 10:31:09;;;;;;;;;;;24.30;43.20;;;;;;1481585;78;718;-72
2022/02/02 10:33:14;;;;;;;;;;;24.30;43.20;;;;;;1474765;79;1951;-72
2022/02/02 10:35:32;;;;;;;;;;;24.40;43.20;;;;;;1472013;79;820;-71
2022/02/02 10:37:36;;;;;;;;;;;24.40;43.20;;;;;;1481304;79;702;-72
2022/02/02 10:39:48;;;;;;;;;;;24.40;43.20;;;;;;1479797;78;695;-72
2022/02/02 10:41:55;;;;;;;;;;;24.30;43.20;;;;;;1478094;78;793;-68
2022/02/02 10:44:03;;;;;;;;;;;24.30;43.30;;;;;;1477637;79;1788;-72
2022/02/02 10:46:08;;;;;;;;;;;24.30;43.30;;;;;;1476407;79;1481;-71
2022/02/02 10:48:18;;;;;;;;;;;24.40;43.30;;;;;;1473950;79;1354;-70
2022/02/02 10:50:48;;;;;;;;;;;24.40;43.30;;;;;;1476558;80;1163;-69
2022/02/02 10:54:35;;;;;;;;;;;24.40;43.30;;;;;;1474904;79;885;-71
2022/02/02 10:56:42;;;;;;;;;;;24.50;43.40;;;;;;1482745;79;1119;-71
2022/02/02 10:59:09;;;;;;;;;;;24.40;43.30;;;;;;1476204;79;1057;-72
2022/02/02 11:01:36;;;;;;;;;;;24.40;43.40;;;;;;1470558;79;1029;-70
2022/02/02 11:07:29;;;;;;;;;;;24.40;43.40;;;;;;1468069;78;1633;-70
2022/02/02 11:09:31;;;;;;;;;;;24.40;43.40;;;;;;1477936;80;732;-72
2022/02/02 11:11:33;;;;;;;;;;;24.50;43.50;;;;;;1478329;80;681;-73
2022/02/02 11:13:35;;;;;;;;;;;24.40;43.40;;;;;;1477378;79;1958;-72
2022/02/02 11:15:38;;;;;;;;;;;24.40;43.40;;;;;;1470172;79;748;-73
2022/02/02 11:17:46;;;;;;;;;;;24.40;43.40;;;;;;1477283;79;724;-71
2022/02/02 11:19:49;;;;;;;;;;;24.40;43.40;;;;;;1468237;80;777;-72
2022/02/02 11:21:51;;;;;;;;;;;24.50;43.40;;;;;;1469195;79;729;-69
2022/02/02 11:23:53;;;;;;;;;;;24.40;43.40;;;;;;1474157;78;1118;-70
2022/02/02 11:25:55;;;;;;;;;;;24.50;43.50;;;;;;1478537;79;704;-72
2022/02/02 11:27:57;;;;;;;;;;;24.40;43.40;;;;;;1477419;79;713;-73
2022/02/02 11:29:59;;;;;;;;;;;24.40;43.30;;;;;;1478247;79;1045;-73
2022/02/02 11:32:05;;;;;;;;;;;24.40;43.40;;;;;;1476998;80;731;-74
2022/02/02 11:34:07;;;;;;;;;;;24.50;43.50;;;;;;1471284;79;1901;-74
2022/02/02 11:36:20;;;;;;;;;;;24.50;43.40;;;;;;1457124;80;1186;-75
2022/02/02 11:38:28;;;;;;;;;;;24.40;43.40;;;;;;1472597;80;721;-74
2022/02/02 11:40:34;;;;;;;;;;;24.50;43.40;;;;;;1479031;80;728;-72
2022/02/02 11:42:48;;;;;;;;;;;24.40;43.30;;;;;;1472671;79;1595;-72
2022/02/02 11:44:54;;;;;;;;;;;24.40;43.40;;;;;;1471517;80;1499;-74
2022/02/02 11:47:19;;;;;;;;;;;24.40;43.40;;;;;;1468177;80;1161;-73
2022/02/02 11:49:18;;;;;;;;;;;24.30;43.40;;;;;;1477432;80;1211;-73
2022/02/02 11:51:37;;;;;;;;;;;24.40;43.40;;;;;;1478279;79;1128;-73
2022/02/02 11:53:52;;;;;;;;;;;24.30;43.40;;;;;;1478167;79;1931;-75
2022/02/02 11:55:56;;;;;;;;;;;24.40;43.40;;;;;;1480225;79;735;-71
2022/02/02 11:58:12;;;;;;;;;;;24.30;43.50;;;;;;1472969;79;1092;-75
2022/02/02 12:00:17;;;;;;;;;;;24.30;43.40;;;;;;1476007;79;998;-71
2022/02/02 12:02:22;;;;;;;;;;;24.40;43.50;;;;;;1472763;79;1192;-74
2022/02/02 12:04:26;;;;;;;;;;;24.40;43.40;;;;;;1477210;79;972;-73
2022/02/02 12:45:01;;;;;;;;;;;24.30;43.40;;;;;;1478273;78;1660;-74
2022/02/02 12:50:01;;;;;;;;;;;24.30;43.40;;;;;;1476725;80;866;-72
2022/02/02 12:58:34;;;;;;;;;;;24.40;43.40;;;;;;1478027;79;856;-73
2022/02/02 13:02:45;;;;;;;;;;;24.40;43.40;;;;;;1477832;79;1234;-72
2022/02/02 13:04:49;;;;;;;;;;;24.40;43.40;;;;;;1475874;80;873;-73
2022/02/02 13:06:51;;;;;;;;;;;24.50;43.50;;;;;;1473957;80;1673;-73
2022/02/02 13:08:52;;;;;;;;;;;24.40;43.40;;;;;;1475315;80;707;-73
2022/02/02 13:10:54;;;;;;;;;;;24.40;43.40;;;;;;1478368;80;657;-74
2022/02/02 13:13:07;;;;;;;;;;;24.40;43.40;;;;;;1478849;79;1147;-73
2022/02/02 13:15:23;;;;;;;;;;;24.30;43.40;;;;;;1475502;80;636;-73
2022/02/02 13:17:19;;;;;;;;;;;24.40;43.40;;;;;;1475742;80;1157;-73
2022/02/02 13:19:28;;;;;;;;;;;24.40;43.40;;;;;;1476356;80;747;-73
2022/02/02 13:21:35;;;;;;;;;;;24.50;43.60;;;;;;1451993;80;1612;-72
2022/02/02 13:25:54;;;;;;;;;;;24.40;43.50;;;;;;1470383;80;738;-73
2022/02/02 13:27:58;;;;;;;;;;;24.40;43.50;;;;;;1480084;80;712;-73
2022/02/02 13:30:05;;;;;;;;;;;24.40;43.50;;;;;;1478697;79;1610;-71
2022/02/02 13:32:12;;;;;;;;;;;24.40;43.60;;;;;;1476415;80;1085;-72
2022/02/02 13:34:17;;;;;;;;;;;24.30;43.50;;;;;;1472968;79;1927;-75
2022/02/02 13:36:24;;;;;;;;;;;24.30;43.50;;;;;;1473005;79;1079;-79
2022/02/02 13:38:35;;;;;;;;;;;24.30;43.60;;;;;;1490526;78;998;-75
2022/02/02 13:45:22;;;;;;;;;;;24.30;43.60;;;;;;1478633;80;718;-73
2022/02/02 13:47:22;;;;;;;;;;;24.40;43.60;;;;;;1465331;79;1423;-73
2022/02/02 13:50:25;;;;;;;;;;;24.40;43.60;;;;;;1464259;79;1572;-73
2022/02/02 13:55:45;;;;;;;;;;;24.50;43.70;;;;;;1483352;79;883;-72
2022/02/02 14:00:22;;;;;;;;;;;24.40;43.60;;;;;;1471591;80;866;-73
2022/02/02 14:02:18;;;;;;;;;;;24.40;43.60;;;;;;1468643;79;1042;-71
2022/02/02 14:06:33;;;;;;;;;;;24.50;43.80;;;;;;1471927;80;868;-72
2022/02/02 14:09:10;;;;;;;;;;;24.40;43.70;;;;;;1465455;80;1604;-71
2022/02/02 14:10:54;;;;;;;;;;;24.50;43.80;;;;;;1471827;80;1206;-72
2022/02/02 14:31:17;;;;;;;;;;;24.50;43.90;;;;;;1484785;79;1618;-73
2022/02/02 14:33:18;;;;;;;;;;;24.50;43.90;;;;;;1479651;79;1137;-72
2022/02/02 14:35:20;;;;;;;;;;;24.50;43.90;;;;;;1479907;79;1933;-72
2022/02/02 14:37:30;;;;;;;;;;;24.50;43.90;;;;;;1485199;78;782;-73
2022/02/02 14:39:40;;;;;;;;;;;24.50;43.90;;;;;;1476297;79;982;-74
2022/02/02 14:41:40;;;;;;;;;;;24.50;43.90;;;;;;1474565;78;1128;-73
2022/02/02 14:43:58;;;;;;;;;;;24.50;43.90;;;;;;1479041;78;1181;-74
2022/02/02 14:45:56;;;;;;;;;;;24.50;43.90;;;;;;1479175;79;1069;-73
2022/02/02 14:48:04;;;;;;;;;;;24.50;43.90;;;;;;1479726;79;1121;-74
2022/02/02 14:50:09;;;;;;;;;;;24.40;43.80;;;;;;1475944;78;1122;-74
2022/02/02 14:55:08;;;;;;;;;;;24.50;44.00;;;;;;1480086;78;1928;-73
2022/02/02 15:08:59;;;;;;;;;;;24.50;44.00;;;;;;1476556;79;875;-74
2022/02/02 15:28:15;;;;;;;;;;;24.30;44.10;;;;;;1479732;79;851;-75
2022/02/02 15:30:28;;;;;;;;;;;24.40;44.10;;;;;;1478095;78;1147;-75
2022/02/02 15:32:48;;;;;;;;;;;24.40;44.10;;;;;;1479702;79;1184;-71
2022/02/02 15:34:53;;;;;;;;;;;24.40;44.30;;;;;;1476909;79;1971;-70
2022/02/02 15:38:56;;;;;;;;;;;24.40;44.10;;;;;;1476156;79;763;-73
2022/02/02 15:41:04;;;;;;;;;;;24.30;44.10;;;;;;1467826;79;731;-73
2022/02/02 15:43:24;;;;;;;;;;;24.30;44.00;;;;;;1471356;79;1236;-74
2022/02/02 15:54:49;;;;;;;;;;;24.30;44.10;;;;;;1476701;79;1935;-73
2022/02/02 15:59:22;;;;;;;;;;;24.30;44.10;;;;;;1468943;79;1656;-74
2022/02/02 16:01:58;;;;;;;;;;;24.30;44.10;;;;;;1465645;79;1646;-77
2022/02/02 16:03:26;;;;;;;;;;;24.30;44.10;;;;;;1473300;79;1482;-70
2022/02/02 16:05:29;;;;;;;;;;;24.40;44.20;;;;;;1483779;79;1615;-70
2022/02/02 16:07:28;;;;;;;;;;;24.40;44.10;;;;;;1478533;79;1124;-71
2022/02/02 16:09:36;;;;;;;;;;;24.40;44.10;;;;;;1470990;79;1670;-68
2022/02/02 16:11:32;;;;;;;;;;;24.40;44.10;;;;;;1476036;79;1685;-69
2022/02/02 16:15:40;;;;;;;;;;;24.40;44.00;;;;;;1476268;79;1909;-71
2022/02/02 16:25:01;;;;;;;;;;;24.40;44.20;;;;;;1476602;79;1668;-76
2022/02/02 16:31:51;;;;;;;;;;;24.40;44.20;;;;;;1478715;79;1729;-72
2022/02/02 16:35:57;;;;;;;;;;;24.40;44.20;;;;;;1472693;79;1905;-73
2022/02/02 16:37:57;;;;;;;;;;;24.40;44.20;;;;;;1472561;79;1011;-72
2022/02/02 16:40:03;;;;;;;;;;;24.40;44.20;;;;;;1476230;79;1682;-72
2022/02/02 16:44:24;;;;;;;;;;;24.50;44.20;;;;;;1473481;79;1593;-70
2022/02/02 16:46:25;;;;;;;;;;;24.40;44.10;;;;;;1475164;79;721;-72
2022/02/02 16:48:27;;;;;;;;;;;24.40;44.20;;;;;;1469955;79;707;-73
2022/02/02 16:50:33;;;;;;;;;;;24.40;44.20;;;;;;1471908;79;730;-75
2022/02/02 16:52:34;;;;;;;;;;;24.40;44.10;;;;;;1468985;79;1546;-73
2022/02/02 16:54:41;;;;;;;;;;;24.50;44.20;;;;;;1470880;79;1916;-74
2022/02/02 16:56:57;;;;;;;;;;;24.50;44.20;;;;;;1463662;79;1668;-72
2022/02/02 17:31:18;;;;;;;;;;;24.40;44.30;;;;;;1469364;79;868;-74
2022/02/02 17:33:20;;;;;;;;;;;24.30;44.30;;;;;;1472316;79;1712;-73
2022/02/02 17:37:46;;;;;;;;;;;24.40;44.40;;;;;;1464547;79;872;-71
2022/02/02 17:39:51;;;;;;;;;;;24.30;44.40;;;;;;1472117;79;1696;-74
2022/02/02 17:42:07;;;;;;;;;;;24.40;44.40;;;;;;1472977;79;1592;-72
2022/02/02 17:58:36;;;;;;;;;;;24.30;44.50;;;;;;1477615;79;1659;-68
2022/02/02 18:03:04;;;;;;;;;;;24.30;44.60;;;;;;1467440;79;802;-74
2022/02/02 18:20:31;;;;;;;;;;;24.30;44.50;;;;;;1474909;79;750;-73
2022/02/02 18:22:25;;;;;;;;;;;24.40;44.50;;;;;;1467693;79;1577;-74
2022/02/02 18:24:36;;;;;;;;;;;24.40;44.50;;;;;;1475772;79;1633;-71
2022/02/02 18:26:50;;;;;;;;;;;24.40;44.40;;;;;;1475535;79;1742;-72
2022/02/02 18:35:13;;;;;;;;;;;24.50;44.50;;;;;;1470329;79;1917;-77
2022/02/02 18:48:37;;;;;;;;;;;24.60;44.40;;;;;;1463987;79;690;-74
2022/02/02 18:50:54;;;;;;;;;;;24.50;44.40;;;;;;1475655;79;1487;-74
2022/02/02 18:55:11;;;;;;;;;;;24.60;44.40;;;;;;1470572;79;1903;-74
2022/02/02 19:01:38;;;;;;;;;;;24.50;44.40;;;;;;1469151;79;793;-75
2022/02/02 19:06:17;;;;;;;;;;;24.60;44.40;;;;;;1471428;79;796;-71
2022/02/02 19:38:16;;;;;;;;;;;24.50;44.70;;;;;;1468562;79;1656;-74
2022/02/02 19:40:10;;;;;;;;;;;24.50;44.70;;;;;;1469088;79;1221;-74
2022/02/02 19:55:03;;;;;;;;;;;24.50;45.10;;;;;;1470027;79;1230;-73
2022/02/02 19:56:13;;;;;;;;;;;24.40;45.20;;;;;;1465644;79;1919;-73
2022/02/02 20:04:56;;;;;;;;;;;24.40;45.60;;;;;;1471790;79;1134;-74
2022/02/02 20:07:07;;;;;;;;;;;24.50;45.80;;;;;;1472686;79;1599;-71
2022/02/02 20:11:15;;;;;;;;;;;24.50;46.00;;;;;;1469040;79;915;-72
2022/02/02 20:13:11;;;;;;;;;;;24.60;46.00;;;;;;1471076;79;1608;-70
2022/02/02 20:15:14;;;;;;;;;;;24.60;46.00;;;;;;1475491;79;1941;-71
2022/02/02 20:17:18;;;;;;;;;;;24.60;46.20;;;;;;1471800;79;801;-71
2022/02/02 20:19:19;;;;;;;;;;;24.60;46.20;;;;;;1472134;79;1449;-69
2022/02/02 20:21:24;;;;;;;;;;;24.60;46.30;;;;;;1471745;79;751;-74
2022/02/02 20:23:26;;;;;;;;;;;24.60;46.20;;;;;;1479193;79;1674;-70
2022/02/02 20:25:28;;;;;;;;;;;24.70;46.50;;;;;;1477083;79;792;-71
2022/02/02 20:27:32;;;;;;;;;;;24.60;46.50;;;;;;1479750;79;749;-74
2022/02/02 20:29:33;;;;;;;;;;;24.60;46.40;;;;;;1487515;79;743;-69
2022/02/02 20:31:35;;;;;;;;;;;24.60;46.50;;;;;;1480345;79;739;-70
2022/02/02 20:33:37;;;;;;;;;;;24.70;46.80;;;;;;1475745;79;1177;-71
2022/02/02 20:35:39;;;;;;;;;;;24.60;46.70;;;;;;1470020;79;1937;-71
2022/02/02 20:37:41;;;;;;;;;;;24.60;46.80;;;;;;1472300;79;861;-71
2022/02/02 20:39:53;;;;;;;;;;;24.50;46.90;;;;;;1471926;79;719;-73
2022/02/02 20:41:50;;;;;;;;;;;24.60;47.00;;;;;;1471730;79;1638;-72
2022/02/02 20:44:01;;;;;;;;;;;24.50;47.10;;;;;;1471798;79;1108;-72
2022/02/02 21:06:42;;;;;;;;;;;24.40;47.60;;;;;;1475853;79;1050;-73
2022/02/02 21:10:43;;;;;;;;;;;24.40;47.60;;;;;;1479455;79;877;-70
2022/02/02 21:15:12;;;;;;;;;;;24.40;47.70;;;;;;1477183;79;1641;-69
2022/02/02 21:17:17;;;;;;;;;;;24.40;47.70;;;;;;1477435;79;1940;-70
2022/02/02 21:19:22;;;;;;;;;;;24.40;47.70;;;;;;1471500;79;1502;-71
2022/02/02 21:21:34;;;;;;;;;;;24.40;47.80;;;;;;1477783;79;1613;-72
2022/02/02 21:23:43;;;;;;;;;;;24.40;47.80;;;;;;1479843;79;1715;-77
2022/02/02 21:27:45;;;;;;;;;;;24.40;47.80;;;;;;1478248;79;878;-72
2022/02/02 21:29:47;;;;;;;;;;;24.40;47.80;;;;;;1484365;79;730;-71
2022/02/02 21:31:49;;;;;;;;;;;24.40;47.80;;;;;;1470601;79;608;-70
2022/02/02 21:33:51;;;;;;;;;;;24.40;47.80;;;;;;1485608;79;1139;-71
2022/02/02 21:35:55;;;;;;;;;;;24.40;47.80;;;;;;1474511;79;1959;-71
2022/02/02 21:38:04;;;;;;;;;;;24.40;47.80;;;;;;1479771;79;715;-72
2022/02/02 21:40:05;;;;;;;;;;;24.40;47.80;;;;;;1480646;79;1669;-71
2022/02/02 21:42:07;;;;;;;;;;;24.40;47.90;;;;;;1475992;79;828;-70
2022/02/02 21:44:09;;;;;;;;;;;24.30;47.80;;;;;;1475724;79;1170;-71